MET'MAP v2.0
soon released !

Expected late october,
this new version will be
more efficient, smarter,
and hosted on a brand new
server x3 powerfull...
...and still free !


Not compatible ?
Try the mobile version !

LOG IN : | Subscribe | Disclaimer | Who is Orbifly ? |
ICAO code :
Legend : VFR Marginal VFR IFR Intensive IFR Very Intensive IFR
Visi :
Ceiling :
>= 8 km
>= 3000ft
5 to 8 km
1000 to 3000 ft
1500m to 5 km
500 to 1000 ft
800 to 1500m
200 to 500 ft
< 800m
< 200 ft

METAR - LOWS Salzburg - 31 May 2020 03:12 UTC - Data Source NOAA   


- Airport Elevation : 1411 ft
- IATA code : SZG
- No reported NOTAMs.


LOWS - Salzburg

Latest METAR recorded : 2015/08/11 07:50 LOWS 110750Z 16004KT 9999 FEW035 24/12 Q1017 NOSIG
TAF TAF LOWS
Valid from the 31 at 00:00 until the 01 at 00:00 UTC


302315Z 3100/3124 15005KT 9999 FEW050 BKN080 TX15/3112Z TN06/3103Z
PROB30
TEMPO 3101/3106 VRB01KT 0500 BCFG
BECMG 3107/3109 34005KT
TEMPO 3109/3124 -SHRA BKN050
BECMG 3118/3120 15005KT

Source NOAA


MET'MAP, your aeronautical weather chart ! - Copyright ORBIFLY December 2007

Programming & Development : Alexandra Zaïnal
Co-Developer : Marc-Olivier Méhu
Technical & hardware support : Manuel Goepfert
Concept & Financing : Baudouin d'Aumeries